sensor_id;sensor_type;location;lat;lon;timestamp;temperature;humidity
21439;DHT22;10880;50.302;18.736;2023-07-22T00:01:28;23.90;56.60
21439;DHT22;10880;50.302;18.736;2023-07-22T00:03:55;23.80;56.60
21439;DHT22;10880;50.302;18.736;2023-07-22T00:08:50;23.80;56.60
21439;DHT22;10880;50.302;18.736;2023-07-22T00:11:16;23.80;57.20
21439;DHT22;10880;50.302;18.736;2023-07-22T00:13:42;23.70;56.60
21439;DHT22;10880;50.302;18.736;2023-07-22T00:16:10;23.70;56.90
21439;DHT22;10880;50.302;18.736;2023-07-22T00:18:37;23.70;56.90
21439;DHT22;10880;50.302;18.736;2023-07-22T00:21:03;23.70;57.10
21439;DHT22;10880;50.302;18.736;2023-07-22T00:23:30;23.70;56.80
21439;DHT22;10880;50.302;18.736;2023-07-22T00:25:57;23.70;57.10
21439;DHT22;10880;50.302;18.736;2023-07-22T00:28:24;23.70;57.40
21439;DHT22;10880;50.302;18.736;2023-07-22T00:35:48;23.70;57.20
21439;DHT22;10880;50.302;18.736;2023-07-22T00:43:11;23.60;57.30
21439;DHT22;10880;50.302;18.736;2023-07-22T00:45:37;23.70;57.50
21439;DHT22;10880;50.302;18.736;2023-07-22T00:48:05;23.80;57.50
21439;DHT22;10880;50.302;18.736;2023-07-22T00:50:33;23.70;57.40
21439;DHT22;10880;50.302;18.736;2023-07-22T00:52:59;23.60;57.50
21439;DHT22;10880;50.302;18.736;2023-07-22T00:57:54;23.60;57.30
21439;DHT22;10880;50.302;18.736;2023-07-22T01:00:22;23.60;57.40
21439;DHT22;10880;50.302;18.736;2023-07-22T01:05:16;23.70;57.70
21439;DHT22;10880;50.302;18.736;2023-07-22T01:07:42;23.60;57.70
21439;DHT22;10880;50.302;18.736;2023-07-22T01:15:04;23.50;57.50
21439;DHT22;10880;50.302;18.736;2023-07-22T01:17:36;23.50;57.60
21439;DHT22;10880;50.302;18.736;2023-07-22T01:20:03;23.50;58.00
21439;DHT22;10880;50.302;18.736;2023-07-22T01:22:30;23.50;58.00
21439;DHT22;10880;50.302;18.736;2023-07-22T01:24:57;23.50;57.60
21439;DHT22;10880;50.302;18.736;2023-07-22T01:27:24;23.50;58.10
21439;DHT22;10880;50.302;18.736;2023-07-22T01:29:51;23.50;57.40
21439;DHT22;10880;50.302;18.736;2023-07-22T01:32:18;23.40;57.70
21439;DHT22;10880;50.302;18.736;2023-07-22T01:37:13;23.40;57.60
21439;DHT22;10880;50.302;18.736;2023-07-22T01:39:41;23.40;57.80
21439;DHT22;10880;50.302;18.736;2023-07-22T01:42:08;23.30;57.60
21439;DHT22;10880;50.302;18.736;2023-07-22T01:47:04;23.30;57.70
21439;DHT22;10880;50.302;18.736;2023-07-22T01:51:57;23.30;58.00
21439;DHT22;10880;50.302;18.736;2023-07-22T01:54:23;23.30;57.90
21439;DHT22;10880;50.302;18.736;2023-07-22T01:56:49;23.20;57.80
21439;DHT22;10880;50.302;18.736;2023-07-22T01:59:16;23.30;58.20
21439;DHT22;10880;50.302;18.736;2023-07-22T02:01:43;23.20;58.10
21439;DHT22;10880;50.302;18.736;2023-07-22T02:06:37;23.20;58.30
21439;DHT22;10880;50.302;18.736;2023-07-22T02:09:03;23.20;58.10
21439;DHT22;10880;50.302;18.736;2023-07-22T02:11:37;23.20;58.70
21439;DHT22;10880;50.302;18.736;2023-07-22T02:14:03;23.20;58.30
21439;DHT22;10880;50.302;18.736;2023-07-22T02:16:36;23.20;58.30
21439;DHT22;10880;50.302;18.736;2023-07-22T02:19:03;23.20;58.40
21439;DHT22;10880;50.302;18.736;2023-07-22T02:21:35;23.20;58.50
21439;DHT22;10880;50.302;18.736;2023-07-22T02:24:02;23.20;58.40
21439;DHT22;10880;50.302;18.736;2023-07-22T02:26:29;23.30;58.70
21439;DHT22;10880;50.302;18.736;2023-07-22T02:28:55;23.20;58.50
21439;DHT22;10880;50.302;18.736;2023-07-22T02:31:22;23.20;58.50
21439;DHT22;10880;50.302;18.736;2023-07-22T02:36:15;23.20;58.60
21439;DHT22;10880;50.302;18.736;2023-07-22T02:41:09;23.20;58.60
21439;DHT22;10880;50.302;18.736;2023-07-22T02:43:35;23.20;58.80
21439;DHT22;10880;50.302;18.736;2023-07-22T02:46:04;23.20;58.70
21439;DHT22;10880;50.302;18.736;2023-07-22T02:48:31;23.20;58.70
21439;DHT22;10880;50.302;18.736;2023-07-22T02:51:08;23.20;58.70
21439;DHT22;10880;50.302;18.736;2023-07-22T02:53:37;23.20;59.20
21439;DHT22;10880;50.302;18.736;2023-07-22T02:56:04;23.20;58.70
21439;DHT22;10880;50.302;18.736;2023-07-22T03:00:57;23.20;58.90
21439;DHT22;10880;50.302;18.736;2023-07-22T03:03:24;23.20;58.60
21439;DHT22;10880;50.302;18.736;2023-07-22T03:05:50;23.10;58.80
21439;DHT22;10880;50.302;18.736;2023-07-22T03:08:18;23.10;59.10
21439;DHT22;10880;50.302;18.736;2023-07-22T03:13:15;23.10;58.90
21439;DHT22;10880;50.302;18.736;2023-07-22T03:15:42;23.10;59.40
21439;DHT22;10880;50.302;18.736;2023-07-22T03:18:08;23.10;59.30
21439;DHT22;10880;50.302;18.736;2023-07-22T03:20:37;23.10;59.20
21439;DHT22;10880;50.302;18.736;2023-07-22T03:23:04;23.10;59.00
21439;DHT22;10880;50.302;18.736;2023-07-22T03:25:31;23.10;59.50
21439;DHT22;10880;50.302;18.736;2023-07-22T03:28:04;23.10;59.20
21439;DHT22;10880;50.302;18.736;2023-07-22T03:32:57;23.20;59.40
21439;DHT22;10880;50.302;18.736;2023-07-22T03:37:51;23.10;59.20
21439;DHT22;10880;50.302;18.736;2023-07-22T03:40:18;23.20;59.20
21439;DHT22;10880;50.302;18.736;2023-07-22T03:42:54;23.20;59.60
21439;DHT22;10880;50.302;18.736;2023-07-22T03:45:21;23.20;59.70
21439;DHT22;10880;50.302;18.736;2023-07-22T03:47:56;23.20;59.40
21439;DHT22;10880;50.302;18.736;2023-07-22T03:50:22;23.20;59.80
21439;DHT22;10880;50.302;18.736;2023-07-22T03:55:15;23.20;59.00
21439;DHT22;10880;50.302;18.736;2023-07-22T04:00:09;23.20;59.20
21439;DHT22;10880;50.302;18.736;2023-07-22T04:02:38;23.20;59.30
21439;DHT22;10880;50.302;18.736;2023-07-22T04:05:06;23.20;59.30
21439;DHT22;10880;50.302;18.736;2023-07-22T04:07:32;23.20;59.40
21439;DHT22;10880;50.302;18.736;2023-07-22T04:09:59;23.20;59.20
21439;DHT22;10880;50.302;18.736;2023-07-22T04:12:25;23.20;59.20
21439;DHT22;10880;50.302;18.736;2023-07-22T04:14:52;23.20;59.30
21439;DHT22;10880;50.302;18.736;2023-07-22T04:17:20;23.20;59.30
21439;DHT22;10880;50.302;18.736;2023-07-22T04:19:46;23.20;59.20
21439;DHT22;10880;50.302;18.736;2023-07-22T04:22:13;23.20;59.20
21439;DHT22;10880;50.302;18.736;2023-07-22T04:24:40;23.20;59.30
21439;DHT22;10880;50.302;18.736;2023-07-22T04:27:07;23.20;59.40
21439;DHT22;10880;50.302;18.736;2023-07-22T04:29:35;23.20;59.40
21439;DHT22;10880;50.302;18.736;2023-07-22T04:32:06;23.20;59.40
21439;DHT22;10880;50.302;18.736;2023-07-22T04:34:33;23.20;59.30
21439;DHT22;10880;50.302;18.736;2023-07-22T04:37:00;23.20;59.40
21439;DHT22;10880;50.302;18.736;2023-07-22T04:44:21;23.20;59.00
21439;DHT22;10880;50.302;18.736;2023-07-22T04:46:47;23.20;59.00
21439;DHT22;10880;50.302;18.736;2023-07-22T04:49:13;23.20;58.90
21439;DHT22;10880;50.302;18.736;2023-07-22T04:51:46;23.20;59.40
21439;DHT22;10880;50.302;18.736;2023-07-22T04:54:13;23.20;59.00
21439;DHT22;10880;50.302;18.736;2023-07-22T04:56:41;23.20;59.10
21439;DHT22;10880;50.302;18.736;2023-07-22T05:01:35;23.20;59.00
21439;DHT22;10880;50.302;18.736;2023-07-22T05:04:01;23.20;58.90
21439;DHT22;10880;50.302;18.736;2023-07-22T05:06:28;23.20;58.80
21439;DHT22;10880;50.302;18.736;2023-07-22T05:08:55;23.30;59.10
21439;DHT22;10880;50.302;18.736;2023-07-22T05:11:21;23.30;59.10
21439;DHT22;10880;50.302;18.736;2023-07-22T05:13:49;23.20;59.20
21439;DHT22;10880;50.302;18.736;2023-07-22T05:18:42;23.20;58.90
21439;DHT22;10880;50.302;18.736;2023-07-22T05:23:35;23.20;59.10
21439;DHT22;10880;50.302;18.736;2023-07-22T05:30:56;23.20;59.00
21439;DHT22;10880;50.302;18.736;2023-07-22T05:40:43;23.20;58.90
21439;DHT22;10880;50.302;18.736;2023-07-22T05:43:10;23.30;59.30
21439;DHT22;10880;50.302;18.736;2023-07-22T05:45:37;23.30;59.20
21439;DHT22;10880;50.302;18.736;2023-07-22T05:48:04;23.20;59.10
21439;DHT22;10880;50.302;18.736;2023-07-22T05:50:30;23.30;59.30
21439;DHT22;10880;50.302;18.736;2023-07-22T05:52:57;23.30;59.20
21439;DHT22;10880;50.302;18.736;2023-07-22T05:55:23;23.30;59.20
21439;DHT22;10880;50.302;18.736;2023-07-22T06:00:17;23.30;59.30
21439;DHT22;10880;50.302;18.736;2023-07-22T06:02:45;23.40;59.20
21439;DHT22;10880;50.302;18.736;2023-07-22T06:10:05;23.40;59.10
21439;DHT22;10880;50.302;18.736;2023-07-22T06:19:53;23.50;58.90
21439;DHT22;10880;50.302;18.736;2023-07-22T06:24:46;23.50;58.80
21439;DHT22;10880;50.302;18.736;2023-07-22T06:27:13;23.70;59.20
21439;DHT22;10880;50.302;18.736;2023-07-22T06:39:27;24.00;59.30
21439;DHT22;10880;50.302;18.736;2023-07-22T06:41:54;24.20;59.60
21439;DHT22;10880;50.302;18.736;2023-07-22T06:44:21;24.40;60.20
21439;DHT22;10880;50.302;18.736;2023-07-22T06:46:47;24.50;59.50
21439;DHT22;10880;50.302;18.736;2023-07-22T06:49:13;24.50;58.80
21439;DHT22;10880;50.302;18.736;2023-07-22T06:51:40;24.50;58.60
21439;DHT22;10880;50.302;18.736;2023-07-22T06:59:00;24.70;57.80
21439;DHT22;10880;50.302;18.736;2023-07-22T07:01:26;24.80;57.70
21439;DHT22;10880;50.302;18.736;2023-07-22T07:03:52;24.90;57.50
21439;DHT22;10880;50.302;18.736;2023-07-22T07:08:45;24.90;57.30
21439;DHT22;10880;50.302;18.736;2023-07-22T07:11:12;25.00;57.30
21439;DHT22;10880;50.302;18.736;2023-07-22T07:13:38;25.10;57.30
21439;DHT22;10880;50.302;18.736;2023-07-22T07:16:24;25.00;57.10
21439;DHT22;10880;50.302;18.736;2023-07-22T07:18:51;25.10;57.10
21439;DHT22;10880;50.302;18.736;2023-07-22T07:21:19;25.10;57.50
21439;DHT22;10880;50.302;18.736;2023-07-22T07:23:45;25.20;57.10
21439;DHT22;10880;50.302;18.736;2023-07-22T07:26:15;25.20;57.00
21439;DHT22;10880;50.302;18.736;2023-07-22T07:28:41;25.10;57.40
21439;DHT22;10880;50.302;18.736;2023-07-22T07:31:08;25.20;56.90
21439;DHT22;10880;50.302;18.736;2023-07-22T07:33:34;25.20;57.00
21439;DHT22;10880;50.302;18.736;2023-07-22T07:36:01;25.30;57.00
21439;DHT22;10880;50.302;18.736;2023-07-22T07:41:01;25.30;56.90
21439;DHT22;10880;50.302;18.736;2023-07-22T07:43:27;25.40;57.40
21439;DHT22;10880;50.302;18.736;2023-07-22T07:46:32;25.40;56.80
21439;DHT22;10880;50.302;18.736;2023-07-22T07:48:59;25.40;56.70
21439;DHT22;10880;50.302;18.736;2023-07-22T07:51:31;25.50;56.50
21439;DHT22;10880;50.302;18.736;2023-07-22T07:53:59;25.50;56.70
21439;DHT22;10880;50.302;18.736;2023-07-22T07:56:25;25.50;56.50
21439;DHT22;10880;50.302;18.736;2023-07-22T07:58:53;25.60;56.60
21439;DHT22;10880;50.302;18.736;2023-07-22T08:01:20;25.60;56.30
21439;DHT22;10880;50.302;18.736;2023-07-22T08:03:47;25.70;56.30
21439;DHT22;10880;50.302;18.736;2023-07-22T08:06:15;25.70;56.10
21439;DHT22;10880;50.302;18.736;2023-07-22T08:08:41;25.70;56.20
21439;DHT22;10880;50.302;18.736;2023-07-22T08:11:14;25.80;56.30
21439;DHT22;10880;50.302;18.736;2023-07-22T08:13:42;25.80;56.70
21439;DHT22;10880;50.302;18.736;2023-07-22T08:16:10;25.80;56.10
21439;DHT22;10880;50.302;18.736;2023-07-22T08:18:37;25.90;56.20
21439;DHT22;10880;50.302;18.736;2023-07-22T08:21:04;25.90;56.30
21439;DHT22;10880;50.302;18.736;2023-07-22T08:23:33;25.90;56.70
21439;DHT22;10880;50.302;18.736;2023-07-22T08:26:00;26.00;56.40
21439;DHT22;10880;50.302;18.736;2023-07-22T08:28:26;26.00;56.00
21439;DHT22;10880;50.302;18.736;2023-07-22T08:30:56;26.10;55.80
21439;DHT22;10880;50.302;18.736;2023-07-22T08:33:23;26.20;55.50
21439;DHT22;10880;50.302;18.736;2023-07-22T08:35:53;26.20;55.50
21439;DHT22;10880;50.302;18.736;2023-07-22T08:38:19;26.10;55.40
21439;DHT22;10880;50.302;18.736;2023-07-22T08:40:49;26.20;55.40
21439;DHT22;10880;50.302;18.736;2023-07-22T08:43:20;26.30;55.40
21439;DHT22;10880;50.302;18.736;2023-07-22T08:45:48;26.20;56.00
21439;DHT22;10880;50.302;18.736;2023-07-22T08:48:16;26.30;55.50
21439;DHT22;10880;50.302;18.736;2023-07-22T08:51:03;26.30;55.50
21439;DHT22;10880;50.302;18.736;2023-07-22T08:53:31;26.40;55.40
21439;DHT22;10880;50.302;18.736;2023-07-22T08:55:59;26.40;55.60
21439;DHT22;10880;50.302;18.736;2023-07-22T08:58:27;26.50;55.80
21439;DHT22;10880;50.302;18.736;2023-07-22T09:00:54;26.50;55.20
21439;DHT22;10880;50.302;18.736;2023-07-22T09:03:22;26.50;55.80
21439;DHT22;10880;50.302;18.736;2023-07-22T09:05:48;26.60;54.90
21439;DHT22;10880;50.302;18.736;2023-07-22T09:08:15;26.60;55.40
21439;DHT22;10880;50.302;18.736;2023-07-22T09:10:44;26.80;55.30
21439;DHT22;10880;50.302;18.736;2023-07-22T09:13:12;26.80;54.90
21439;DHT22;10880;50.302;18.736;2023-07-22T09:15:39;26.80;55.70
21439;DHT22;10880;50.302;18.736;2023-07-22T09:18:06;26.90;55.00
21439;DHT22;10880;50.302;18.736;2023-07-22T09:20:34;26.90;55.50
21439;DHT22;10880;50.302;18.736;2023-07-22T09:23:01;27.00;55.30
21439;DHT22;10880;50.302;18.736;2023-07-22T09:25:28;27.10;54.70
21439;DHT22;10880;50.302;18.736;2023-07-22T09:27:58;27.10;55.40
21439;DHT22;10880;50.302;18.736;2023-07-22T09:30:32;27.30;54.70
21439;DHT22;10880;50.302;18.736;2023-07-22T09:33:01;27.40;54.70
21439;DHT22;10880;50.302;18.736;2023-07-22T09:35:45;27.40;54.40
21439;DHT22;10880;50.302;18.736;2023-07-22T09:40:41;28.90;55.10
21439;DHT22;10880;50.302;18.736;2023-07-22T09:43:10;27.60;54.10
21439;DHT22;10880;50.302;18.736;2023-07-22T09:45:38;27.80;54.80
21439;DHT22;10880;50.302;18.736;2023-07-22T09:48:05;27.80;54.10
21439;DHT22;10880;50.302;18.736;2023-07-22T09:52:59;28.10;54.10
21439;DHT22;10880;50.302;18.736;2023-07-22T09:55:27;27.90;53.40
21439;DHT22;10880;50.302;18.736;2023-07-22T10:00:31;28.00;54.00
21439;DHT22;10880;50.302;18.736;2023-07-22T10:03:00;28.00;53.50
21439;DHT22;10880;50.302;18.736;2023-07-22T10:05:27;28.00;53.30
21439;DHT22;10880;50.302;18.736;2023-07-22T10:07:56;28.00;52.50
21439;DHT22;10880;50.302;18.736;2023-07-22T10:10:27;28.10;52.20
21439;DHT22;10880;50.302;18.736;2023-07-22T10:12:56;28.00;52.80
21439;DHT22;10880;50.302;18.736;2023-07-22T10:15:29;28.00;52.90
21439;DHT22;10880;50.302;18.736;2023-07-22T10:17:57;28.10;52.10
21439;DHT22;10880;50.302;18.736;2023-07-22T10:20:24;28.00;52.30
21439;DHT22;10880;50.302;18.736;2023-07-22T10:22:51;28.00;51.90
21439;DHT22;10880;50.302;18.736;2023-07-22T10:25:19;28.00;52.30
21439;DHT22;10880;50.302;18.736;2023-07-22T10:27:47;28.00;52.40
21439;DHT22;10880;50.302;18.736;2023-07-22T10:30:15;28.10;51.60
21439;DHT22;10880;50.302;18.736;2023-07-22T10:32:46;28.10;51.70
21439;DHT22;10880;50.302;18.736;2023-07-22T10:35:23;28.00;52.20
21439;DHT22;10880;50.302;18.736;2023-07-22T10:40:51;28.10;51.50
21439;DHT22;10880;50.302;18.736;2023-07-22T10:45:57;28.20;51.90
21439;DHT22;10880;50.302;18.736;2023-07-22T10:48:33;28.20;51.80
21439;DHT22;10880;50.302;18.736;2023-07-22T10:51:13;28.30;51.90
21439;DHT22;10880;50.302;18.736;2023-07-22T10:53:43;28.30;51.70
21439;DHT22;10880;50.302;18.736;2023-07-22T11:15:15;28.50;49.70
21439;DHT22;10880;50.302;18.736;2023-07-22T11:17:42;28.40;50.30
21439;DHT22;10880;50.302;18.736;2023-07-22T11:20:08;28.40;50.50
21439;DHT22;10880;50.302;18.736;2023-07-22T11:22:38;28.40;49.60
21439;DHT22;10880;50.302;18.736;2023-07-22T11:25:05;28.40;49.40
21439;DHT22;10880;50.302;18.736;2023-07-22T11:27:32;28.40;50.00
21439;DHT22;10880;50.302;18.736;2023-07-22T11:29:59;28.40;49.40
21439;DHT22;10880;50.302;18.736;2023-07-22T11:32:25;28.40;49.40
21439;DHT22;10880;50.302;18.736;2023-07-22T11:34:52;28.40;49.50
21439;DHT22;10880;50.302;18.736;2023-07-22T11:37:19;28.40;50.30
21439;DHT22;10880;50.302;18.736;2023-07-22T11:39:45;28.40;49.50
21439;DHT22;10880;50.302;18.736;2023-07-22T11:42:12;28.40;49.50
21439;DHT22;10880;50.302;18.736;2023-07-22T11:44:39;28.40;49.40
21439;DHT22;10880;50.302;18.736;2023-07-22T11:47:07;28.40;48.90
21439;DHT22;10880;50.302;18.736;2023-07-22T11:49:43;28.40;49.40
21439;DHT22;10880;50.302;18.736;2023-07-22T11:52:17;28.40;49.40
21439;DHT22;10880;50.302;18.736;2023-07-22T11:54:45;28.40;49.20
21439;DHT22;10880;50.302;18.736;2023-07-22T11:59:46;28.40;48.50
21439;DHT22;10880;50.302;18.736;2023-07-22T12:02:18;28.40;49.10
21439;DHT22;10880;50.302;18.736;2023-07-22T12:05:12;28.40;49.00
21439;DHT22;10880;50.302;18.736;2023-07-22T12:07:39;28.50;48.30
21439;DHT22;10880;50.302;18.736;2023-07-22T12:10:07;28.50;48.50
21439;DHT22;10880;50.302;18.736;2023-07-22T12:15:17;28.50;49.00
21439;DHT22;10880;50.302;18.736;2023-07-22T12:20:18;28.50;48.80
21439;DHT22;10880;50.302;18.736;2023-07-22T12:22:45;28.40;48.40
21439;DHT22;10880;50.302;18.736;2023-07-22T12:25:11;28.40;48.10
21439;DHT22;10880;50.302;18.736;2023-07-22T12:27:38;28.50;47.60
21439;DHT22;10880;50.302;18.736;2023-07-22T12:30:05;28.40;47.80
21439;DHT22;10880;50.302;18.736;2023-07-22T12:32:33;28.40;48.30
21439;DHT22;10880;50.302;18.736;2023-07-22T12:35:03;28.50;47.90
21439;DHT22;10880;50.302;18.736;2023-07-22T12:37:32;28.50;47.70
21439;DHT22;10880;50.302;18.736;2023-07-22T12:42:25;28.50;47.60
21439;DHT22;10880;50.302;18.736;2023-07-22T12:44:52;28.50;47.10
21439;DHT22;10880;50.302;18.736;2023-07-22T12:47:19;26.80;46.70
21439;DHT22;10880;50.302;18.736;2023-07-22T12:49:46;28.50;47.60
21439;DHT22;10880;50.302;18.736;2023-07-22T12:52:12;28.50;47.00
21439;DHT22;10880;50.302;18.736;2023-07-22T12:54:39;28.50;46.90
21439;DHT22;10880;50.302;18.736;2023-07-22T12:57:06;28.50;47.10
21439;DHT22;10880;50.302;18.736;2023-07-22T12:59:32;28.40;46.80
21439;DHT22;10880;50.302;18.736;2023-07-22T13:01:58;28.40;46.70
21439;DHT22;10880;50.302;18.736;2023-07-22T13:04:25;28.40;46.50
21439;DHT22;10880;50.302;18.736;2023-07-22T13:06:51;28.40;46.60
21439;DHT22;10880;50.302;18.736;2023-07-22T13:09:18;28.40;46.60
21439;DHT22;10880;50.302;18.736;2023-07-22T13:11:45;28.40;47.10
21439;DHT22;10880;50.302;18.736;2023-07-22T13:14:11;28.40;46.60
21439;DHT22;10880;50.302;18.736;2023-07-22T13:16:38;28.40;46.60
21439;DHT22;10880;50.302;18.736;2023-07-22T13:19:04;28.40;46.70
21439;DHT22;10880;50.302;18.736;2023-07-22T13:21:31;28.40;46.40
21439;DHT22;10880;50.302;18.736;2023-07-22T13:23:58;28.50;46.30
21439;DHT22;10880;50.302;18.736;2023-07-22T13:26:24;28.40;47.10
21439;DHT22;10880;50.302;18.736;2023-07-22T13:28:53;28.50;46.50
21439;DHT22;10880;50.302;18.736;2023-07-22T13:31:22;28.50;46.70
21439;DHT22;10880;50.302;18.736;2023-07-22T13:33:48;28.50;46.60
21439;DHT22;10880;50.302;18.736;2023-07-22T13:36:14;28.50;46.10
21439;DHT22;10880;50.302;18.736;2023-07-22T13:38:41;28.50;46.30
21439;DHT22;10880;50.302;18.736;2023-07-22T13:41:08;28.60;46.20
21439;DHT22;10880;50.302;18.736;2023-07-22T13:43:34;28.50;46.60
21439;DHT22;10880;50.302;18.736;2023-07-22T13:46:03;28.50;46.30
21439;DHT22;10880;50.302;18.736;2023-07-22T13:48:30;28.50;46.50
21439;DHT22;10880;50.302;18.736;2023-07-22T13:50:59;28.50;46.20
21439;DHT22;10880;50.302;18.736;2023-07-22T13:53:26;28.60;45.60
21439;DHT22;10880;50.302;18.736;2023-07-22T13:55:53;28.50;45.90
21439;DHT22;10880;50.302;18.736;2023-07-22T13:58:19;28.50;45.60
21439;DHT22;10880;50.302;18.736;2023-07-22T14:00:47;28.60;45.40
21439;DHT22;10880;50.302;18.736;2023-07-22T14:03:14;28.50;45.60
21439;DHT22;10880;50.302;18.736;2023-07-22T14:05:41;28.50;45.40
21439;DHT22;10880;50.302;18.736;2023-07-22T14:08:07;28.50;45.80
21439;DHT22;10880;50.302;18.736;2023-07-22T14:10:34;28.50;45.40
21439;DHT22;10880;50.302;18.736;2023-07-22T14:13:01;28.60;45.30
21439;DHT22;10880;50.302;18.736;2023-07-22T14:15:28;28.50;45.40
21439;DHT22;10880;50.302;18.736;2023-07-22T14:17:54;28.50;45.40
21439;DHT22;10880;50.302;18.736;2023-07-22T14:20:20;28.50;45.30
21439;DHT22;10880;50.302;18.736;2023-07-22T14:22:47;28.50;45.20
21439;DHT22;10880;50.302;18.736;2023-07-22T14:25:16;28.60;45.00
21439;DHT22;10880;50.302;18.736;2023-07-22T14:27:42;28.50;45.10
21439;DHT22;10880;50.302;18.736;2023-07-22T14:30:10;28.50;45.00
21439;DHT22;10880;50.302;18.736;2023-07-22T14:32:36;28.50;44.60
21439;DHT22;10880;50.302;18.736;2023-07-22T14:35:03;28.50;44.80
21439;DHT22;10880;50.302;18.736;2023-07-22T14:37:30;28.50;45.20
21439;DHT22;10880;50.302;18.736;2023-07-22T14:39:57;28.50;44.70
21439;DHT22;10880;50.302;18.736;2023-07-22T14:42:23;28.50;44.60
21439;DHT22;10880;50.302;18.736;2023-07-22T14:44:50;28.50;44.70
21439;DHT22;10880;50.302;18.736;2023-07-22T14:47:16;28.50;44.50
21439;DHT22;10880;50.302;18.736;2023-07-22T14:49:42;28.50;44.20
21439;DHT22;10880;50.302;18.736;2023-07-22T14:52:09;28.50;44.10
21439;DHT22;10880;50.302;18.736;2023-07-22T14:54:35;28.50;44.10
21439;DHT22;10880;50.302;18.736;2023-07-22T14:57:02;28.40;44.20
21439;DHT22;10880;50.302;18.736;2023-07-22T14:59:28;28.40;44.20
21439;DHT22;10880;50.302;18.736;2023-07-22T15:01:54;28.40;44.20
21439;DHT22;10880;50.302;18.736;2023-07-22T15:04:21;28.40;44.20
21439;DHT22;10880;50.302;18.736;2023-07-22T15:06:47;28.40;44.10
21439;DHT22;10880;50.302;18.736;2023-07-22T15:09:14;28.40;44.20
21439;DHT22;10880;50.302;18.736;2023-07-22T15:11:40;28.40;44.10
21439;DHT22;10880;50.302;18.736;2023-07-22T15:14:06;28.40;44.10
21439;DHT22;10880;50.302;18.736;2023-07-22T15:16:33;28.40;44.00
21439;DHT22;10880;50.302;18.736;2023-07-22T15:18:59;28.40;44.00
21439;DHT22;10880;50.302;18.736;2023-07-22T15:21:26;28.40;43.90
21439;DHT22;10880;50.302;18.736;2023-07-22T15:23:53;28.40;43.90
21439;DHT22;10880;50.302;18.736;2023-07-22T15:26:20;28.40;44.30
21439;DHT22;10880;50.302;18.736;2023-07-22T15:28:48;28.40;43.80
21439;DHT22;10880;50.302;18.736;2023-07-22T15:31:18;28.40;44.20
21439;DHT22;10880;50.302;18.736;2023-07-22T15:33:45;28.40;44.40
21439;DHT22;10880;50.302;18.736;2023-07-22T15:36:12;28.40;43.90
21439;DHT22;10880;50.302;18.736;2023-07-22T15:38:38;28.40;43.90
21439;DHT22;10880;50.302;18.736;2023-07-22T15:41:05;28.40;44.20
21439;DHT22;10880;50.302;18.736;2023-07-22T15:45:58;28.40;43.80
21439;DHT22;10880;50.302;18.736;2023-07-22T15:48:25;28.40;44.20
21439;DHT22;10880;50.302;18.736;2023-07-22T15:53:18;28.30;43.60
21439;DHT22;10880;50.302;18.736;2023-07-22T15:55:44;28.40;43.60
21439;DHT22;10880;50.302;18.736;2023-07-22T15:58:11;28.30;43.70
21439;DHT22;10880;50.302;18.736;2023-07-22T16:03:04;28.30;43.60
21439;DHT22;10880;50.302;18.736;2023-07-22T16:05:31;28.30;43.60
21439;DHT22;10880;50.302;18.736;2023-07-22T16:07:58;28.30;43.60
21439;DHT22;10880;50.302;18.736;2023-07-22T16:10:25;28.30;43.60
21439;DHT22;10880;50.302;18.736;2023-07-22T16:12:51;28.20;43.60
21439;DHT22;10880;50.302;18.736;2023-07-22T16:18:02;28.20;43.90
21439;DHT22;10880;50.302;18.736;2023-07-22T16:20:28;28.20;43.70
21439;DHT22;10880;50.302;18.736;2023-07-22T16:22:56;28.20;43.70
21439;DHT22;10880;50.302;18.736;2023-07-22T16:25:23;28.20;43.70
21439;DHT22;10880;50.302;18.736;2023-07-22T16:27:49;28.10;43.60
21439;DHT22;10880;50.302;18.736;2023-07-22T16:32:42;28.10;43.40
21439;DHT22;10880;50.302;18.736;2023-07-22T16:35:09;28.10;43.60
21439;DHT22;10880;50.302;18.736;2023-07-22T16:37:36;28.10;44.00
21439;DHT22;10880;50.302;18.736;2023-07-22T16:40:04;28.00;43.50
21439;DHT22;10880;50.302;18.736;2023-07-22T16:42:30;28.00;44.30
21439;DHT22;10880;50.302;18.736;2023-07-22T16:44:57;28.00;43.70
21439;DHT22;10880;50.302;18.736;2023-07-22T16:47:23;28.00;43.60
21439;DHT22;10880;50.302;18.736;2023-07-22T16:49:49;28.00;43.60
21439;DHT22;10880;50.302;18.736;2023-07-22T16:52:30;27.90;43.00
21439;DHT22;10880;50.302;18.736;2023-07-22T16:57:34;27.90;43.40
21439;DHT22;10880;50.302;18.736;2023-07-22T17:00:01;27.90;43.40
21439;DHT22;10880;50.302;18.736;2023-07-22T17:02:29;27.90;43.30
21439;DHT22;10880;50.302;18.736;2023-07-22T17:04:55;27.90;43.50
21439;DHT22;10880;50.302;18.736;2023-07-22T17:12:18;27.80;43.40
21439;DHT22;10880;50.302;18.736;2023-07-22T17:14:45;27.80;43.40
21439;DHT22;10880;50.302;18.736;2023-07-22T17:17:12;27.80;43.50
21439;DHT22;10880;50.302;18.736;2023-07-22T17:22:06;27.80;43.60
21439;DHT22;10880;50.302;18.736;2023-07-22T17:26:59;27.70;43.50
21439;DHT22;10880;50.302;18.736;2023-07-22T17:29:26;27.70;43.60
21439;DHT22;10880;50.302;18.736;2023-07-22T17:31:53;27.70;43.60
21439;DHT22;10880;50.302;18.736;2023-07-22T17:34:19;27.70;43.60
21439;DHT22;10880;50.302;18.736;2023-07-22T17:36:46;27.70;43.50
21439;DHT22;10880;50.302;18.736;2023-07-22T17:39:14;27.70;43.80
21439;DHT22;10880;50.302;18.736;2023-07-22T17:41:41;27.70;43.20
21439;DHT22;10880;50.302;18.736;2023-07-22T17:44:07;27.60;43.30
21439;DHT22;10880;50.302;18.736;2023-07-22T17:46:35;27.60;43.20
21439;DHT22;10880;50.302;18.736;2023-07-22T17:49:02;27.50;43.30
21439;DHT22;10880;50.302;18.736;2023-07-22T17:51:28;27.50;43.60
21439;DHT22;10880;50.302;18.736;2023-07-22T17:53:55;27.50;43.30
21439;DHT22;10880;50.302;18.736;2023-07-22T17:56:21;27.50;43.40
21439;DHT22;10880;50.302;18.736;2023-07-22T17:58:48;27.40;43.30
21439;DHT22;10880;50.302;18.736;2023-07-22T18:01:14;27.40;43.50
21439;DHT22;10880;50.302;18.736;2023-07-22T18:03:41;27.40;43.80
21439;DHT22;10880;50.302;18.736;2023-07-22T18:06:07;27.30;43.40
21439;DHT22;10880;50.302;18.736;2023-07-22T18:08:34;27.30;43.70
21439;DHT22;10880;50.302;18.736;2023-07-22T18:11:01;27.20;43.70
21439;DHT22;10880;50.302;18.736;2023-07-22T18:13:28;27.20;43.70
21439;DHT22;10880;50.302;18.736;2023-07-22T18:15:54;27.10;43.50
21439;DHT22;10880;50.302;18.736;2023-07-22T18:18:21;27.10;43.50